sensor_id;sensor_type;location;lat;lon;timestamp;pressure;altitude;pressure_sealevel;temperature;humidity
61077;BME280;46956;52.186;19.716;2022-07-23T00:05:31;100525.47;;;28.60;38.84
61077;BME280;46956;52.186;19.716;2022-07-23T00:08:02;100527.09;;;28.61;38.84
61077;BME280;46956;52.186;19.716;2022-07-23T00:10:30;100521.47;;;28.77;38.77
61077;BME280;46956;52.186;19.716;2022-07-23T00:13:01;100517.50;;;28.93;38.71
61077;BME280;46956;52.186;19.716;2022-07-23T00:15:29;100513.47;;;29.09;38.10
61077;BME280;46956;52.186;19.716;2022-07-23T00:20:42;100512.56;;;29.00;37.95
61077;BME280;46956;52.186;19.716;2022-07-23T00:23:12;100513.94;;;28.97;38.36
61077;BME280;46956;52.186;19.716;2022-07-23T00:25:42;100520.66;;;29.00;38.00
61077;BME280;46956;52.186;19.716;2022-07-23T00:28:10;100522.16;;;29.06;38.03
61077;BME280;46956;52.186;19.716;2022-07-23T00:30:39;100517.78;;;29.10;38.22
61077;BME280;46956;52.186;19.716;2022-07-23T00:33:07;100532.13;;;29.24;37.86
61077;BME280;46956;52.186;19.716;2022-07-23T00:35:39;100532.66;;;29.26;37.93
61077;BME280;46956;52.186;19.716;2022-07-23T00:38:09;100533.06;;;29.33;37.57
61077;BME280;46956;52.186;19.716;2022-07-23T00:40:38;100530.59;;;29.37;37.24
61077;BME280;46956;52.186;19.716;2022-07-23T00:43:07;100523.06;;;29.34;37.14
61077;BME280;46956;52.186;19.716;2022-07-23T00:45:37;100526.00;;;29.37;37.61
61077;BME280;46956;52.186;19.716;2022-07-23T00:48:09;100540.38;;;29.52;37.36
61077;BME280;46956;52.186;19.716;2022-07-23T00:50:39;100537.38;;;29.53;36.94
61077;BME280;46956;52.186;19.716;2022-07-23T00:53:08;100540.28;;;29.57;37.02
61077;BME280;46956;52.186;19.716;2022-07-23T00:55:36;100532.56;;;29.50;37.09
61077;BME280;46956;52.186;19.716;2022-07-23T00:58:05;100536.91;;;29.46;36.81
61077;BME280;46956;52.186;19.716;2022-07-23T01:00:34;100531.91;;;29.39;37.02
61077;BME280;46956;52.186;19.716;2022-07-23T01:03:05;100541.75;;;29.49;36.72
61077;BME280;46956;52.186;19.716;2022-07-23T01:08:07;100513.31;;;29.38;37.03
61077;BME280;46956;52.186;19.716;2022-07-23T01:10:39;100532.13;;;29.43;36.86
61077;BME280;46956;52.186;19.716;2022-07-23T01:13:09;100542.94;;;29.24;36.93
61077;BME280;46956;52.186;19.716;2022-07-23T01:15:38;100542.69;;;29.07;37.45
61077;BME280;46956;52.186;19.716;2022-07-23T01:18:08;100535.16;;;29.04;37.57
61077;BME280;46956;52.186;19.716;2022-07-23T01:20:36;100542.34;;;28.90;37.88
61077;BME280;46956;52.186;19.716;2022-07-23T01:23:05;100538.03;;;28.70;37.99
61077;BME280;46956;52.186;19.716;2022-07-23T01:25:34;100541.22;;;28.53;38.61
61077;BME280;46956;52.186;19.716;2022-07-23T01:28:02;100540.97;;;28.26;38.90
61077;BME280;46956;52.186;19.716;2022-07-23T01:30:30;100530.47;;;28.24;38.98
61077;BME280;46956;52.186;19.716;2022-07-23T01:32:58;100537.50;;;28.20;39.17
61077;BME280;46956;52.186;19.716;2022-07-23T01:35:27;100531.00;;;28.03;39.20
61077;BME280;46956;52.186;19.716;2022-07-23T01:37:55;100533.16;;;28.01;39.55
61077;BME280;46956;52.186;19.716;2022-07-23T01:40:28;100530.19;;;28.02;39.64
61077;BME280;46956;52.186;19.716;2022-07-23T01:42:58;100528.84;;;28.00;39.35
61077;BME280;46956;52.186;19.716;2022-07-23T01:45:28;100545.13;;;28.18;39.11
61077;BME280;46956;52.186;19.716;2022-07-23T01:47:56;100538.44;;;28.11;39.10
61077;BME280;46956;52.186;19.716;2022-07-23T01:50:24;100542.56;;;28.03;39.39
61077;BME280;46956;52.186;19.716;2022-07-23T01:52:52;100536.72;;;27.96;39.51
61077;BME280;46956;52.186;19.716;2022-07-23T01:55:21;100532.13;;;27.97;39.49
61077;BME280;46956;52.186;19.716;2022-07-23T01:57:50;100529.03;;;28.08;39.46
61077;BME280;46956;52.186;19.716;2022-07-23T02:00:20;100528.13;;;28.18;39.44
61077;BME280;46956;52.186;19.716;2022-07-23T02:02:48;100527.50;;;28.26;38.79
61077;BME280;46956;52.186;19.716;2022-07-23T02:05:15;100533.13;;;28.72;37.93
61077;BME280;46956;52.186;19.716;2022-07-23T02:07:44;100533.56;;;28.42;37.94
61077;BME280;46956;52.186;19.716;2022-07-23T02:10:12;100527.72;;;28.29;38.78
61077;BME280;46956;52.186;19.716;2022-07-23T02:12:40;100532.09;;;28.25;39.02
61077;BME280;46956;52.186;19.716;2022-07-23T02:15:10;100520.50;;;28.25;38.93
61077;BME280;46956;52.186;19.716;2022-07-23T02:17:37;100526.09;;;28.28;38.65
61077;BME280;46956;52.186;19.716;2022-07-23T02:20:11;100512.63;;;28.28;38.71
61077;BME280;46956;52.186;19.716;2022-07-23T02:25:12;100517.84;;;28.20;38.79
61077;BME280;46956;52.186;19.716;2022-07-23T02:27:41;100524.50;;;28.27;38.67
61077;BME280;46956;52.186;19.716;2022-07-23T02:30:21;100521.94;;;28.17;38.51
61077;BME280;46956;52.186;19.716;2022-07-23T02:32:47;100524.78;;;28.02;39.01
61077;BME280;46956;52.186;19.716;2022-07-23T02:35:17;100536.72;;;27.96;38.97
61077;BME280;46956;52.186;19.716;2022-07-23T02:40:20;100538.97;;;27.84;39.11
61077;BME280;46956;52.186;19.716;2022-07-23T02:42:48;100527.41;;;27.83;39.64
61077;BME280;46956;52.186;19.716;2022-07-23T02:45:18;100517.66;;;27.87;39.70
61077;BME280;46956;52.186;19.716;2022-07-23T02:50:18;100516.09;;;28.10;38.50
61077;BME280;46956;52.186;19.716;2022-07-23T02:52:47;100526.75;;;27.97;39.12
61077;BME280;46956;52.186;19.716;2022-07-23T02:55:19;100524.16;;;27.86;38.86
61077;BME280;46956;52.186;19.716;2022-07-23T02:57:50;100524.16;;;27.86;38.79
61077;BME280;46956;52.186;19.716;2022-07-23T03:00:21;100521.44;;;27.86;39.06
61077;BME280;46956;52.186;19.716;2022-07-23T03:02:49;100528.16;;;27.89;38.60
61077;BME280;46956;52.186;19.716;2022-07-23T03:05:17;100518.31;;;27.74;39.13
61077;BME280;46956;52.186;19.716;2022-07-23T03:07:47;100522.44;;;27.62;39.13
61077;BME280;46956;52.186;19.716;2022-07-23T03:10:18;100533.00;;;27.58;39.24
61077;BME280;46956;52.186;19.716;2022-07-23T03:12:47;100533.66;;;27.45;39.87
61077;BME280;46956;52.186;19.716;2022-07-23T03:15:17;100535.88;;;27.38;39.67
61077;BME280;46956;52.186;19.716;2022-07-23T03:17:48;100529.69;;;27.66;39.86
61077;BME280;46956;52.186;19.716;2022-07-23T03:20:16;100537.94;;;27.46;40.00
61077;BME280;46956;52.186;19.716;2022-07-23T03:22:44;100545.50;;;27.44;40.16
61077;BME280;46956;52.186;19.716;2022-07-23T03:25:12;100538.47;;;27.48;39.76
61077;BME280;46956;52.186;19.716;2022-07-23T03:27:40;100532.81;;;27.49;40.11
61077;BME280;46956;52.186;19.716;2022-07-23T03:32:40;100528.41;;;27.58;39.06
61077;BME280;46956;52.186;19.716;2022-07-23T03:35:10;100519.53;;;27.58;39.14
61077;BME280;46956;52.186;19.716;2022-07-23T03:37:38;100527.97;;;27.46;39.13
61077;BME280;46956;52.186;19.716;2022-07-23T03:40:07;100528.28;;;27.40;39.64
61077;BME280;46956;52.186;19.716;2022-07-23T03:42:35;100523.00;;;27.30;39.77
61077;BME280;46956;52.186;19.716;2022-07-23T03:45:05;100532.19;;;27.24;40.26
61077;BME280;46956;52.186;19.716;2022-07-23T03:47:33;100526.84;;;27.13;40.35
61077;BME280;46956;52.186;19.716;2022-07-23T03:50:06;100521.63;;;27.32;40.30
61077;BME280;46956;52.186;19.716;2022-07-23T03:52:37;100532.34;;;26.98;41.08
61077;BME280;46956;52.186;19.716;2022-07-23T03:55:09;100531.09;;;26.80;41.46
61077;BME280;46956;52.186;19.716;2022-07-23T03:57:37;100525.78;;;26.65;42.08
61077;BME280;46956;52.186;19.716;2022-07-23T04:00:07;100525.28;;;26.58;42.32
61077;BME280;46956;52.186;19.716;2022-07-23T04:02:37;100519.34;;;26.61;42.63
61077;BME280;46956;52.186;19.716;2022-07-23T04:05:07;100529.78;;;26.73;42.61
61077;BME280;46956;52.186;19.716;2022-07-23T04:07:37;100527.34;;;26.76;42.49
61077;BME280;46956;52.186;19.716;2022-07-23T04:10:07;100512.91;;;26.62;42.56
61077;BME280;46956;52.186;19.716;2022-07-23T04:12:35;100528.69;;;26.74;42.87
61077;BME280;46956;52.186;19.716;2022-07-23T04:15:06;100525.75;;;26.75;42.88
61077;BME280;46956;52.186;19.716;2022-07-23T04:17:35;100524.44;;;26.68;43.32
61077;BME280;46956;52.186;19.716;2022-07-23T04:20:03;100521.47;;;26.69;43.21
61077;BME280;46956;52.186;19.716;2022-07-23T04:22:32;100526.00;;;26.74;43.69
61077;BME280;46956;52.186;19.716;2022-07-23T04:25:03;100510.72;;;26.69;43.83
61077;BME280;46956;52.186;19.716;2022-07-23T04:27:31;100520.31;;;26.80;43.41
61077;BME280;46956;52.186;19.716;2022-07-23T04:30:01;100519.75;;;26.89;43.60
61077;BME280;46956;52.186;19.716;2022-07-23T04:32:31;100510.50;;;27.05;43.36
61077;BME280;46956;52.186;19.716;2022-07-23T04:35:00;100513.88;;;27.26;43.26
61077;BME280;46956;52.186;19.716;2022-07-23T04:37:29;100498.25;;;27.28;42.67
61077;BME280;46956;52.186;19.716;2022-07-23T04:40:05;100501.00;;;27.51;42.79
61077;BME280;46956;52.186;19.716;2022-07-23T04:42:34;100501.00;;;27.51;43.29
61077;BME280;46956;52.186;19.716;2022-07-23T04:45:03;100502.03;;;27.55;42.92
61077;BME280;46956;52.186;19.716;2022-07-23T04:47:29;100506.16;;;27.48;43.26
61077;BME280;46956;52.186;19.716;2022-07-23T04:49:58;100497.19;;;27.86;43.10
61077;BME280;46956;52.186;19.716;2022-07-23T04:52:26;100503.34;;;28.16;42.04
61077;BME280;46956;52.186;19.716;2022-07-23T04:54:55;100505.81;;;28.36;41.88
61077;BME280;46956;52.186;19.716;2022-07-23T04:57:23;100499.41;;;28.51;41.76
61077;BME280;46956;52.186;19.716;2022-07-23T04:59:54;100505.22;;;28.63;41.11
61077;BME280;46956;52.186;19.716;2022-07-23T05:02:23;100511.16;;;28.41;41.10
61077;BME280;46956;52.186;19.716;2022-07-23T05:04:51;100506.34;;;28.38;42.05
61077;BME280;46956;52.186;19.716;2022-07-23T05:07:19;100500.75;;;28.53;41.57
61077;BME280;46956;52.186;19.716;2022-07-23T05:09:47;100504.41;;;28.62;41.26
61077;BME280;46956;52.186;19.716;2022-07-23T05:12:15;100499.09;;;28.76;40.71
61077;BME280;46956;52.186;19.716;2022-07-23T05:14:45;100508.44;;;29.02;40.39
61077;BME280;46956;52.186;19.716;2022-07-23T05:17:13;100505.69;;;29.07;40.25
61077;BME280;46956;52.186;19.716;2022-07-23T05:19:41;100503.28;;;29.06;40.25
61077;BME280;46956;52.186;19.716;2022-07-23T05:22:09;100515.22;;;29.19;40.14
61077;BME280;46956;52.186;19.716;2022-07-23T05:24:37;100515.25;;;29.32;39.69
61077;BME280;46956;52.186;19.716;2022-07-23T05:27:06;100515.78;;;29.34;39.59
61077;BME280;46956;52.186;19.716;2022-07-23T05:29:35;100522.56;;;29.32;40.02
61077;BME280;46956;52.186;19.716;2022-07-23T05:32:05;100517.91;;;29.37;39.84
61077;BME280;46956;52.186;19.716;2022-07-23T05:34:33;100523.91;;;29.48;40.15
61077;BME280;46956;52.186;19.716;2022-07-23T05:37:01;100524.72;;;29.48;39.48
61077;BME280;46956;52.186;19.716;2022-07-23T05:39:29;100518.69;;;29.57;39.36
61077;BME280;46956;52.186;19.716;2022-07-23T05:41:57;100521.69;;;29.69;39.24
61077;BME280;46956;52.186;19.716;2022-07-23T05:44:26;100507.50;;;29.77;39.12
61077;BME280;46956;52.186;19.716;2022-07-23T05:47:00;100505.53;;;29.96;38.89
61077;BME280;46956;52.186;19.716;2022-07-23T05:52:04;100497.84;;;30.17;38.27
61077;BME280;46956;52.186;19.716;2022-07-23T05:54:34;100481.09;;;30.29;38.39
61077;BME280;46956;52.186;19.716;2022-07-23T05:57:03;100497.13;;;30.39;37.79
61077;BME280;46956;52.186;19.716;2022-07-23T05:59:31;100497.50;;;30.46;37.45
61077;BME280;46956;52.186;19.716;2022-07-23T06:01:59;100498.81;;;30.48;37.55
61077;BME280;46956;52.186;19.716;2022-07-23T06:04:27;100492.38;;;30.58;37.88
61077;BME280;46956;52.186;19.716;2022-07-23T06:06:56;100496.00;;;30.67;37.44
61077;BME280;46956;52.186;19.716;2022-07-23T06:09:25;100495.59;;;30.60;37.79
61077;BME280;46956;52.186;19.716;2022-07-23T06:11:53;100502.63;;;30.61;38.06
61077;BME280;46956;52.186;19.716;2022-07-23T06:14:21;100503.31;;;30.67;37.57
61077;BME280;46956;52.186;19.716;2022-07-23T06:16:49;100503.00;;;30.68;37.23
61077;BME280;46956;52.186;19.716;2022-07-23T06:19:17;100502.38;;;30.85;37.31
61077;BME280;46956;52.186;19.716;2022-07-23T06:21:45;100494.00;;;30.95;36.83
61077;BME280;46956;52.186;19.716;2022-07-23T06:24:20;100480.97;;;30.97;36.76
61077;BME280;46956;52.186;19.716;2022-07-23T06:26:51;100489.09;;;32.69;35.53
61077;BME280;46956;52.186;19.716;2022-07-23T06:29:20;100496.44;;;31.41;35.95
61077;BME280;46956;52.186;19.716;2022-07-23T06:31:51;100484.44;;;31.33;36.23
61077;BME280;46956;52.186;19.716;2022-07-23T06:34:19;100484.84;;;31.49;34.70
61077;BME280;46956;52.186;19.716;2022-07-23T06:36:48;100485.06;;;31.61;35.03
61077;BME280;46956;52.186;19.716;2022-07-23T06:39:18;100473.19;;;31.71;33.22
61077;BME280;46956;52.186;19.716;2022-07-23T06:41:46;100471.50;;;32.66;32.58
61077;BME280;46956;52.186;19.716;2022-07-23T06:44:18;100472.31;;;31.93;32.47
61077;BME280;46956;52.186;19.716;2022-07-23T06:46:47;100472.19;;;32.06;32.39
61077;BME280;46956;52.186;19.716;2022-07-23T06:49:15;100467.59;;;32.15;32.72
61077;BME280;46956;52.186;19.716;2022-07-23T06:51:43;100456.00;;;32.24;33.18
61077;BME280;46956;52.186;19.716;2022-07-23T06:54:12;100454.41;;;32.31;33.13
61077;BME280;46956;52.186;19.716;2022-07-23T06:56:43;100454.09;;;32.50;32.00
61077;BME280;46956;52.186;19.716;2022-07-23T06:59:12;100461.31;;;32.55;30.69
61077;BME280;46956;52.186;19.716;2022-07-23T07:01:40;100461.94;;;32.51;30.40
61077;BME280;46956;52.186;19.716;2022-07-23T07:06:38;100463.06;;;32.68;30.57
61077;BME280;46956;52.186;19.716;2022-07-23T07:09:06;100455.72;;;32.68;30.38
61077;BME280;46956;52.186;19.716;2022-07-23T07:11:35;100467.41;;;32.86;30.09
61077;BME280;46956;52.186;19.716;2022-07-23T07:14:06;100477.78;;;33.01;29.75
61077;BME280;46956;52.186;19.716;2022-07-23T07:16:34;100482.56;;;33.04;30.01
61077;BME280;46956;52.186;19.716;2022-07-23T07:19:02;100476.19;;;33.09;29.59
61077;BME280;46956;52.186;19.716;2022-07-23T07:21:31;100472.97;;;33.15;29.05
61077;BME280;46956;52.186;19.716;2022-07-23T07:24:02;100476.38;;;34.85;28.97
61077;BME280;46956;52.186;19.716;2022-07-23T07:26:30;100475.94;;;33.48;29.47
61077;BME280;46956;52.186;19.716;2022-07-23T07:28:58;100477.00;;;33.64;30.05
61077;BME280;46956;52.186;19.716;2022-07-23T07:31:30;100477.50;;;33.75;28.38
61077;BME280;46956;52.186;19.716;2022-07-23T07:33:59;100476.03;;;33.69;28.23
61077;BME280;46956;52.186;19.716;2022-07-23T07:36:27;100477.59;;;33.87;27.84
61077;BME280;46956;52.186;19.716;2022-07-23T07:38:55;100479.31;;;33.92;27.67
61077;BME280;46956;52.186;19.716;2022-07-23T07:41:24;100479.81;;;33.94;27.71
61077;BME280;46956;52.186;19.716;2022-07-23T07:43:53;100484.44;;;33.93;27.24
61077;BME280;46956;52.186;19.716;2022-07-23T07:46:22;100477.03;;;34.02;27.06
61077;BME280;46956;52.186;19.716;2022-07-23T07:48:54;100475.06;;;34.12;27.61
61077;BME280;46956;52.186;19.716;2022-07-23T07:51:25;100477.44;;;34.22;28.14
61077;BME280;46956;52.186;19.716;2022-07-23T07:53:54;100477.00;;;34.40;27.27
61077;BME280;46956;52.186;19.716;2022-07-23T07:56:23;100476.34;;;34.64;27.08
61077;BME280;46956;52.186;19.716;2022-07-23T07:58:53;100476.78;;;34.66;26.92
61077;BME280;46956;52.186;19.716;2022-07-23T08:01:21;100472.31;;;34.50;26.52
61077;BME280;46956;52.186;19.716;2022-07-23T08:03:54;100473.75;;;34.47;26.64
61077;BME280;46956;52.186;19.716;2022-07-23T08:06:21;100481.25;;;34.50;25.81
61077;BME280;46956;52.186;19.716;2022-07-23T08:08:50;100486.69;;;34.50;26.24
61077;BME280;46956;52.186;19.716;2022-07-23T08:11:17;100479.47;;;34.54;26.23
61077;BME280;46956;52.186;19.716;2022-07-23T08:13:45;100472.34;;;34.62;25.96
61077;BME280;46956;52.186;19.716;2022-07-23T08:16:13;100468.75;;;34.70;26.63
61077;BME280;46956;52.186;19.716;2022-07-23T08:18:41;100476.06;;;34.99;26.36
61077;BME280;46956;52.186;19.716;2022-07-23T08:21:11;100476.13;;;35.44;25.03
61077;BME280;46956;52.186;19.716;2022-07-23T08:23:39;100466.53;;;35.26;25.63
61077;BME280;46956;52.186;19.716;2022-07-23T08:26:08;100475.66;;;35.42;25.65
61077;BME280;46956;52.186;19.716;2022-07-23T08:28:36;100477.97;;;35.52;24.81
61077;BME280;46956;52.186;19.716;2022-07-23T08:31:05;100480.69;;;35.64;25.04
61077;BME280;46956;52.186;19.716;2022-07-23T08:36:08;100466.75;;;35.90;24.74
61077;BME280;46956;52.186;19.716;2022-07-23T08:38:38;100459.34;;;36.03;23.92
61077;BME280;46956;52.186;19.716;2022-07-23T08:41:07;100465.63;;;36.15;23.85
61077;BME280;46956;52.186;19.716;2022-07-23T08:43:36;100460.16;;;36.15;24.04
61077;BME280;46956;52.186;19.716;2022-07-23T08:46:04;100460.81;;;36.24;23.30
61077;BME280;46956;52.186;19.716;2022-07-23T08:48:34;100455.72;;;36.23;23.43
61077;BME280;46956;52.186;19.716;2022-07-23T08:51:07;100449.91;;;36.24;23.38
61077;BME280;46956;52.186;19.716;2022-07-23T08:53:34;100444.19;;;36.29;23.26
61077;BME280;46956;52.186;19.716;2022-07-23T08:56:07;100447.09;;;36.61;22.88
61077;BME280;46956;52.186;19.716;2022-07-23T08:58:40;100450.50;;;36.70;23.09
61077;BME280;46956;52.186;19.716;2022-07-23T09:01:08;100449.22;;;36.95;23.27
61077;BME280;46956;52.186;19.716;2022-07-23T09:03:37;100443.16;;;37.02;23.04
61077;BME280;46956;52.186;19.716;2022-07-23T09:06:08;100439.88;;;37.09;22.78
61077;BME280;46956;52.186;19.716;2022-07-23T09:08:38;100431.66;;;37.24;22.94
61077;BME280;46956;52.186;19.716;2022-07-23T09:13:47;100434.06;;;37.41;21.97
61077;BME280;46956;52.186;19.716;2022-07-23T09:16:17;100430.53;;;37.41;22.47
61077;BME280;46956;52.186;19.716;2022-07-23T09:18:48;100416.06;;;37.40;21.93
61077;BME280;46956;52.186;19.716;2022-07-23T09:21:22;100420.69;;;37.68;22.34
61077;BME280;46956;52.186;19.716;2022-07-23T09:23:56;100423.41;;;37.68;22.82
61077;BME280;46956;52.186;19.716;2022-07-23T09:26:29;100417.38;;;37.94;22.39
61077;BME280;46956;52.186;19.716;2022-07-23T09:29:08;100412.66;;;38.29;21.05
61077;BME280;46956;52.186;19.716;2022-07-23T09:31:47;100406.44;;;38.13;21.79
61077;BME280;46956;52.186;19.716;2022-07-23T09:34:19;100413.72;;;38.40;22.00
61077;BME280;46956;52.186;19.716;2022-07-23T09:36:53;100410.00;;;38.33;21.62
61077;BME280;46956;52.186;19.716;2022-07-23T09:39:27;100407.91;;;38.26;21.08
61077;BME280;46956;52.186;19.716;2022-07-23T09:41:56;100404.28;;;38.22;21.13
61077;BME280;46956;52.186;19.716;2022-07-23T09:44:30;100406.88;;;38.50;21.10
61077;BME280;46956;52.186;19.716;2022-07-23T09:47:09;100401.16;;;38.58;20.65
61077;BME280;46956;52.186;19.716;2022-07-23T09:49:37;100397.13;;;38.72;21.51
61077;BME280;46956;52.186;19.716;2022-07-23T09:52:04;100406.13;;;38.91;21.27
61077;BME280;46956;52.186;19.716;2022-07-23T09:54:34;100402.03;;;39.05;20.44
61077;BME280;46956;52.186;19.716;2022-07-23T09:57:06;100386.38;;;39.05;21.04
61077;BME280;46956;52.186;19.716;2022-07-23T09:59:38;100393.84;;;39.27;21.25
61077;BME280;46956;52.186;19.716;2022-07-23T10:02:09;100387.94;;;39.25;21.31
61077;BME280;46956;52.186;19.716;2022-07-23T10:04:40;100390.78;;;39.32;20.80
61077;BME280;46956;52.186;19.716;2022-07-23T10:07:10;100394.06;;;39.42;20.30
61077;BME280;46956;52.186;19.716;2022-07-23T10:09:40;100392.34;;;39.56;19.91
61077;BME280;46956;52.186;19.716;2022-07-23T10:12:10;100396.28;;;39.82;19.88
61077;BME280;46956;52.186;19.716;2022-07-23T10:14:56;100401.13;;;39.92;18.66
61077;BME280;46956;52.186;19.716;2022-07-23T10:17:24;100391.63;;;39.86;19.01
61077;BME280;46956;52.186;19.716;2022-07-23T10:19:54;100390.81;;;39.85;18.86
61077;BME280;46956;52.186;19.716;2022-07-23T10:22:25;100392.91;;;40.22;17.93
61077;BME280;46956;52.186;19.716;2022-07-23T10:25:04;100392.16;;;40.25;18.29
61077;BME280;46956;52.186;19.716;2022-07-23T10:27:53;100383.59;;;40.30;18.41
61077;BME280;46956;52.186;19.716;2022-07-23T10:30:32;100383.44;;;40.49;18.65
61077;BME280;46956;52.186;19.716;2022-07-23T10:33:20;100389.44;;;40.58;19.05
61077;BME280;46956;52.186;19.716;2022-07-23T10:35:56;100379.06;;;40.81;18.85
61077;BME280;46956;52.186;19.716;2022-07-23T10:38:30;100377.66;;;40.95;18.68
61077;BME280;46956;52.186;19.716;2022-07-23T10:41:03;100377.75;;;41.02;17.50
61077;BME280;46956;52.186;19.716;2022-07-23T10:43:32;100357.22;;;40.92;17.92
61077;BME280;46956;52.186;19.716;2022-07-23T10:46:23;100354.75;;;41.24;17.06
61077;BME280;46956;52.186;19.716;2022-07-23T10:52:17;100369.03;;;40.26;17.13
61077;BME280;46956;52.186;19.716;2022-07-23T10:54:48;100369.03;;;39.96;18.20
61077;BME280;46956;52.186;19.716;2022-07-23T10:57:19;100356.97;;;39.74;17.73
61077;BME280;46956;52.186;19.716;2022-07-23T11:00:20;100366.53;;;39.61;18.47
61077;BME280;46956;52.186;19.716;2022-07-23T11:02:52;100367.78;;;39.18;18.46
61077;BME280;46956;52.186;19.716;2022-07-23T11:05:22;100368.78;;;38.83;19.04
61077;BME280;46956;52.186;19.716;2022-07-23T11:08:23;100362.50;;;39.06;19.30
61077;BME280;46956;52.186;19.716;2022-07-23T11:13:44;100355.03;;;39.52;18.87
61077;BME280;46956;52.186;19.716;2022-07-23T11:16:26;100342.88;;;39.76;18.93
61077;BME280;46956;52.186;19.716;2022-07-23T11:19:06;100352.00;;;39.83;19.64
61077;BME280;46956;52.186;19.716;2022-07-23T11:21:49;100344.50;;;40.10;18.90
61077;BME280;46956;52.186;19.716;2022-07-23T11:24:22;100349.53;;;40.38;18.84
61077;BME280;46956;52.186;19.716;2022-07-23T11:27:01;100339.63;;;40.63;18.01
61077;BME280;46956;52.186;19.716;2022-07-23T11:29:49;100336.34;;;40.91;18.11
61077;BME280;46956;52.186;19.716;2022-07-23T11:32:30;100336.19;;;41.17;18.68
61077;BME280;46956;52.186;19.716;2022-07-23T11:35:00;100332.81;;;41.35;18.50
61077;BME280;46956;52.186;19.716;2022-07-23T11:37:35;100324.69;;;41.52;17.45
61077;BME280;46956;52.186;19.716;2022-07-23T11:40:09;100318.03;;;41.64;17.27
61077;BME280;46956;52.186;19.716;2022-07-23T11:42:38;100306.25;;;41.64;17.81
61077;BME280;46956;52.186;19.716;2022-07-23T11:45:08;100320.84;;;41.68;17.95
61077;BME280;46956;52.186;19.716;2022-07-23T11:47:37;100301.56;;;41.71;17.17
61077;BME280;46956;52.186;19.716;2022-07-23T11:50:10;100296.19;;;41.96;17.42
61077;BME280;46956;52.186;19.716;2022-07-23T11:52:38;100289.97;;;42.13;17.72
61077;BME280;46956;52.186;19.716;2022-07-23T11:55:10;100288.44;;;42.37;16.86
61077;BME280;46956;52.186;19.716;2022-07-23T11:57:39;100291.22;;;42.44;16.96
61077;BME280;46956;52.186;19.716;2022-07-23T12:00:10;100281.00;;;42.41;16.51
61077;BME280;46956;52.186;19.716;2022-07-23T12:02:43;100282.94;;;42.33;16.97
61077;BME280;46956;52.186;19.716;2022-07-23T12:07:46;100262.84;;;42.44;16.75
61077;BME280;46956;52.186;19.716;2022-07-23T12:10:20;100257.78;;;42.67;16.91
61077;BME280;46956;52.186;19.716;2022-07-23T12:12:49;100227.06;;;42.68;16.25
61077;BME280;46956;52.186;19.716;2022-07-23T12:15:20;100228.63;;;42.77;15.73
61077;BME280;46956;52.186;19.716;2022-07-23T12:17:51;100223.91;;;42.70;16.07
61077;BME280;46956;52.186;19.716;2022-07-23T12:20:23;100234.13;;;42.52;15.83
61077;BME280;46956;52.186;19.716;2022-07-23T12:22:57;100220.72;;;42.50;16.26
61077;BME280;46956;52.186;19.716;2022-07-23T12:25:29;100202.22;;;42.44;15.88
61077;BME280;46956;52.186;19.716;2022-07-23T12:28:00;100210.13;;;42.70;16.40
61077;BME280;46956;52.186;19.716;2022-07-23T12:30:31;100214.44;;;42.67;15.84
61077;BME280;46956;52.186;19.716;2022-07-23T12:33:01;100199.44;;;42.51;16.36
61077;BME280;46956;52.186;19.716;2022-07-23T12:35:33;100204.19;;;42.43;15.98
61077;BME280;46956;52.186;19.716;2022-07-23T12:38:07;100202.16;;;42.08;16.77
61077;BME280;46956;52.186;19.716;2022-07-23T12:40:41;100197.41;;;41.87;16.96
61077;BME280;46956;52.186;19.716;2022-07-23T12:43:11;100197.78;;;41.75;17.07
61077;BME280;46956;52.186;19.716;2022-07-23T12:45:47;100208.66;;;41.50;16.95
61077;BME280;46956;52.186;19.716;2022-07-23T12:48:18;100244.69;;;41.28;17.01
61077;BME280;46956;52.186;19.716;2022-07-23T12:50:49;100324.66;;;40.24;18.10
61077;BME280;46956;52.186;19.716;2022-07-23T12:53:24;100352.81;;;37.58;22.42
61077;BME280;46956;52.186;19.716;2022-07-23T12:55:59;100374.94;;;35.12;26.30
61077;BME280;46956;52.186;19.716;2022-07-23T12:58:43;100308.66;;;32.23;31.35
61077;BME280;46956;52.186;19.716;2022-07-23T13:01:25;99764.75;;;40.72;48.21
61077;BME280;46956;52.186;19.716;2022-07-23T13:04:03;100253.91;;;34.23;35.31
61077;BME280;46956;52.186;19.716;2022-07-23T13:06:53;100077.78;;;31.99;38.72
61077;BME280;46956;52.186;19.716;2022-07-23T13:09:28;99111.38;;;32.03;51.08
61077;BME280;46956;52.186;19.716;2022-07-23T13:12:00;100265.75;;;33.56;66.96
61077;BME280;46956;52.186;19.716;2022-07-23T13:14:28;99879.06;;;29.48;57.46
61077;BME280;46956;52.186;19.716;2022-07-23T13:16:58;99780.66;;;29.01;53.83
61077;BME280;46956;52.186;19.716;2022-07-23T13:19:26;99756.06;;;27.91;55.42
61077;BME280;46956;52.186;19.716;2022-07-23T13:21:55;99759.75;;;27.00;55.72
61077;BME280;46956;52.186;19.716;2022-07-23T13:24:25;99767.88;;;28.18;54.67
61077;BME280;46956;52.186;19.716;2022-07-23T13:27:29;99723.69;;;27.14;52.33
61077;BME280;46956;52.186;19.716;2022-07-23T14:38:05;99516.50;;;31.78;44.48
61077;BME280;46956;52.186;19.716;2022-07-23T14:40:33;99639.94;;;30.67;43.71
61077;BME280;46956;52.186;19.716;2022-07-23T14:43:01;99573.81;;;29.40;46.11
61077;BME280;46956;52.186;19.716;2022-07-23T14:45:30;99608.66;;;29.59;45.58